Time;durP1;ratioP1;P1;durP2;ratioP2;P2;SDS_P1;SDS_P2;PMS_P1;PMS_P2;Temp;Humidity;BMP_temperature;BMP_pressure;BME280_temperature;BME280_humidity;BME280_pressure;Samples;Min_cycle;Max_cycle;Signal;HPM_P1;HPM_P2
2023/08/04 00:00:54;;;;;;;2.90;2.47;;;16.90;92.10;;;;;;5039512;28;20583;-81
2023/08/04 00:03:21;;;;;;;5.70;3.17;;;17.00;91.50;;;;;;5039113;28;20423;-84
2023/08/04 00:05:48;;;;;;;5.43;3.00;;;17.00;91.50;;;;;;5035286;28;20451;-82
2023/08/04 00:08:15;;;;;;;4.40;2.87;;;17.00;91.50;;;;;;5042194;28;20802;-81
2023/08/04 00:10:42;;;;;;;4.00;3.10;;;17.00;91.40;;;;;;5038202;28;20439;-81
2023/08/04 00:13:09;;;;;;;4.73;3.07;;;17.10;91.10;;;;;;5038403;28;20519;-81
2023/08/04 00:15:37;;;;;;;4.70;2.70;;;17.00;91.10;;;;;;5039575;28;20506;-83
2023/08/04 00:18:05;;;;;;;3.90;3.10;;;17.00;91.30;;;;;;5045715;28;20445;-81
2023/08/04 00:20:32;;;;;;;8.50;3.27;;;17.00;91.20;;;;;;5039020;28;20458;-84
2023/08/04 00:22:59;;;;;;;4.03;2.90;;;17.00;91.00;;;;;;5038588;28;20653;-89
2023/08/04 00:25:27;;;;;;;2.60;2.33;;;17.00;91.00;;;;;;5032564;28;20637;-81
2023/08/04 00:27:56;;;;;;;3.87;2.67;;;17.00;90.70;;;;;;5042333;28;20661;-81
2023/08/04 00:30:23;;;;;;;4.53;2.70;;;17.10;90.40;;;;;;5023984;28;20435;-79
2023/08/04 00:32:51;;;;;;;3.07;2.33;;;17.00;90.50;;;;;;5019059;28;20526;-82
2023/08/04 00:35:18;;;;;;;4.13;2.53;;;17.00;90.50;;;;;;5038468;28;20963;-84
2023/08/04 00:37:45;;;;;;;2.47;2.27;;;17.00;90.40;;;;;;5028271;28;20460;-80
2023/08/04 00:40:12;;;;;;;3.53;2.40;;;17.00;90.20;;;;;;5043460;28;20472;-87
2023/08/04 00:42:39;;;;;;;4.40;2.77;;;17.10;90.10;;;;;;5020165;28;20550;-80
2023/08/04 00:45:07;;;;;;;6.13;4.63;;;17.00;90.20;;;;;;5028796;28;20673;-83
2023/08/04 00:47:35;;;;;;;3.90;2.20;;;16.90;90.30;;;;;;5032710;28;20847;-81
2023/08/04 00:50:05;;;;;;;2.43;2.20;;;16.90;90.20;;;;;;5036393;28;20610;-81
2023/08/04 00:52:32;;;;;;;3.97;2.40;;;16.80;90.60;;;;;;5038253;28;20476;-80
2023/08/04 00:54:59;;;;;;;4.13;2.13;;;16.50;90.60;;;;;;5038173;28;20436;-80
2023/08/04 00:57:26;;;;;;;3.90;2.60;;;16.60;90.70;;;;;;5045435;28;20420;-78
2023/08/04 00:59:55;;;;;;;6.87;2.73;;;16.40;90.80;;;;;;5039942;28;20497;-83
2023/08/04 01:02:23;;;;;;;3.10;2.13;;;16.60;90.70;;;;;;5019758;28;20748;-79
2023/08/04 01:04:50;;;;;;;4.40;2.43;;;16.50;90.60;;;;;;5037889;28;20743;-79
2023/08/04 01:07:27;;;;;;;5.90;4.23;;;16.60;90.70;;;;;;5029501;28;20483;-79
2023/08/04 01:10:02;;;;;;;5.13;2.30;;;16.50;90.90;;;;;;5036717;28;20415;-81
2023/08/04 01:12:49;;;;;;;2.57;2.37;;;16.40;90.80;;;;;;5008701;28;20478;-80
2023/08/04 01:15:18;;;;;;;4.90;2.63;;;16.50;90.70;;;;;;5028463;28;20506;-79
2023/08/04 01:17:45;;;;;;;4.03;2.60;;;16.50;90.70;;;;;;5022853;28;20424;-83
2023/08/04 01:20:13;;;;;;;4.00;2.23;;;16.50;90.40;;;;;;5026327;28;20427;-80
2023/08/04 01:22:41;;;;;;;3.47;2.53;;;16.40;90.70;;;;;;5041228;28;20480;-78
2023/08/04 01:25:09;;;;;;;4.60;2.53;;;16.30;90.80;;;;;;5040262;28;20424;-79
2023/08/04 01:27:55;;;;;;;3.20;2.90;;;16.20;91.10;;;;;;5025550;28;20473;-82
2023/08/04 01:30:24;;;;;;;6.13;2.50;;;16.20;91.10;;;;;;5041030;28;20662;-82
2023/08/04 01:32:51;;;;;;;3.90;2.30;;;16.20;91.00;;;;;;5041718;28;20706;-82
2023/08/04 01:35:18;;;;;;;4.43;2.13;;;16.20;90.90;;;;;;5043933;28;20437;-88
2023/08/04 01:37:46;;;;;;;2.30;1.90;;;16.20;90.80;;;;;;5058425;28;20503;-79
2023/08/04 01:40:13;;;;;;;2.10;1.90;;;16.30;90.80;;;;;;5044146;28;20525;-81
2023/08/04 01:42:40;;;;;;;3.80;2.27;;;16.10;90.80;;;;;;5028803;28;20540;-82
2023/08/04 01:45:08;;;;;;;5.80;2.00;;;16.20;90.70;;;;;;5046486;28;20408;-81
2023/08/04 01:47:38;;;;;;;4.67;2.10;;;16.20;90.70;;;;;;5024730;28;20473;-80
2023/08/04 01:50:09;;;;;;;2.63;1.97;;;16.10;90.70;;;;;;5043460;28;20428;-81
2023/08/04 01:52:37;;;;;;;2.40;1.67;;;16.20;90.60;;;;;;5039510;28;20401;-83
2023/08/04 01:55:04;;;;;;;2.60;2.00;;;16.10;90.70;;;;;;5026371;28;20458;-81
2023/08/04 01:57:32;;;;;;;2.03;1.70;;;16.10;90.80;;;;;;5025010;28;20465;-80
2023/08/04 01:59:59;;;;;;;3.10;2.20;;;16.20;90.80;;;;;;5047551;28;20782;-86
2023/08/04 02:02:26;;;;;;;3.10;1.97;;;16.00;91.20;;;;;;5024619;28;20495;-79
2023/08/04 02:04:57;;;;;;;4.60;1.90;;;15.90;90.80;;;;;;5045029;28;20440;-80
2023/08/04 02:07:25;;;;;;;2.70;2.13;;;15.90;91.00;;;;;;5041843;28;20737;-80
2023/08/04 02:09:52;;;;;;;2.70;2.10;;;15.90;91.10;;;;;;5040439;28;20502;-83
2023/08/04 02:12:20;;;;;;;5.90;2.23;;;15.80;91.20;;;;;;5042625;28;20469;-80
2023/08/04 02:14:47;;;;;;;5.30;2.73;;;15.80;91.40;;;;;;5041638;28;20524;-81
2023/08/04 02:17:17;;;;;;;10.43;3.53;;;15.80;91.40;;;;;;5027521;28;20588;-81
2023/08/04 02:19:45;;;;;;;4.73;2.20;;;15.80;91.10;;;;;;5041089;28;20593;-82
2023/08/04 02:22:13;;;;;;;4.37;2.40;;;15.90;91.20;;;;;;5014579;28;20507;-81
2023/08/04 02:24:43;;;;;;;2.60;2.03;;;15.90;91.10;;;;;;5022248;28;20453;-81
2023/08/04 02:27:10;;;;;;;2.30;2.00;;;15.90;91.30;;;;;;5038576;28;20521;-82
2023/08/04 02:29:37;;;;;;;5.10;2.13;;;15.90;91.10;;;;;;5029728;28;20497;-82
2023/08/04 02:32:04;;;;;;;3.70;2.00;;;15.90;91.00;;;;;;5023572;28;20421;-80
2023/08/04 02:34:31;;;;;;;4.30;2.50;;;15.90;90.90;;;;;;5040624;28;20596;-79
2023/08/04 02:36:58;;;;;;;4.53;2.50;;;15.90;90.80;;;;;;5039939;28;20459;-80
2023/08/04 02:39:25;;;;;;;15.50;2.23;;;15.90;90.80;;;;;;5044406;28;20440;-79
2023/08/04 02:41:53;;;;;;;2.50;2.27;;;16.00;90.80;;;;;;5044368;28;20446;-79
2023/08/04 02:44:20;;;;;;;3.33;2.37;;;16.00;90.80;;;;;;5039701;28;20462;-79
2023/08/04 02:46:48;;;;;;;3.27;2.13;;;15.90;90.70;;;;;;5022427;28;20540;-78
2023/08/04 02:49:16;;;;;;;2.20;2.00;;;16.10;90.60;;;;;;5039753;28;20481;-82
2023/08/04 02:51:43;;;;;;;3.80;2.67;;;16.10;90.50;;;;;;5039981;28;20511;-82
2023/08/04 02:54:11;;;;;;;2.50;2.30;;;16.20;90.50;;;;;;5040032;28;20658;-79
2023/08/04 02:56:45;;;;;;;2.33;1.93;;;16.20;90.40;;;;;;5023497;28;21043;-81
2023/08/04 02:59:12;;;;;;;2.80;2.47;;;16.10;90.30;;;;;;5037668;28;20495;-79
2023/08/04 03:01:40;;;;;;;2.70;1.90;;;16.10;90.00;;;;;;5030685;28;20765;-83
2023/08/04 03:04:08;;;;;;;3.90;2.10;;;16.30;90.00;;;;;;5040052;28;20427;-79
2023/08/04 03:06:34;;;;;;;2.50;1.73;;;16.30;89.90;;;;;;5046367;28;20531;-80
2023/08/04 03:09:01;;;;;;;2.97;2.43;;;16.30;89.50;;;;;;5038908;28;20456;-83
2023/08/04 03:11:28;;;;;;;2.73;2.23;;;16.40;89.50;;;;;;5036877;28;20476;-80
2023/08/04 03:13:56;;;;;;;3.57;2.63;;;16.40;89.10;;;;;;5044405;28;20526;-84
2023/08/04 03:16:23;;;;;;;2.50;2.07;;;16.50;88.10;;;;;;5039946;28;20491;-79
2023/08/04 03:18:50;;;;;;;5.00;2.90;;;16.70;87.20;;;;;;5047357;28;20690;-79
2023/08/04 03:21:17;;;;;;;4.00;2.17;;;16.70;87.90;;;;;;5038367;28;20442;-81
2023/08/04 03:23:44;;;;;;;2.20;1.87;;;16.70;88.00;;;;;;5047527;28;20444;-82
2023/08/04 03:26:11;;;;;;;2.37;1.90;;;16.80;87.30;;;;;;5041832;28;20416;-86
2023/08/04 03:28:38;;;;;;;2.53;1.97;;;16.70;87.70;;;;;;5049067;28;20500;-79
2023/08/04 03:31:06;;;;;;;3.83;2.30;;;16.70;88.00;;;;;;5049432;28;20428;-79
2023/08/04 03:33:34;;;;;;;2.67;2.43;;;16.70;88.50;;;;;;5043651;28;20427;-83
2023/08/04 03:36:02;;;;;;;3.10;1.97;;;16.60;89.00;;;;;;5050711;28;20442;-79
2023/08/04 03:38:28;;;;;;;3.90;1.97;;;16.60;89.00;;;;;;5042396;28;20456;-82
2023/08/04 03:40:56;;;;;;;2.67;2.13;;;16.70;89.00;;;;;;5041856;28;20474;-80
2023/08/04 03:43:23;;;;;;;2.30;2.10;;;16.60;89.00;;;;;;5041330;28;20773;-82
2023/08/04 03:45:49;;;;;;;3.40;2.40;;;16.60;89.50;;;;;;5036056;28;20508;-79
2023/08/04 03:48:17;;;;;;;6.53;2.13;;;16.50;90.00;;;;;;5030794;28;20767;-85
2023/08/04 03:50:45;;;;;;;6.53;2.80;;;16.40;90.10;;;;;;5040059;28;20445;-80
2023/08/04 03:53:12;;;;;;;2.83;2.30;;;16.50;90.30;;;;;;5030925;28;20512;-80
2023/08/04 03:55:39;;;;;;;5.70;3.07;;;16.50;90.40;;;;;;5031729;28;20468;-80
2023/08/04 03:58:06;;;;;;;4.93;3.40;;;16.50;90.20;;;;;;5042451;28;20411;-79
2023/08/04 04:00:33;;;;;;;5.70;2.40;;;16.60;90.20;;;;;;5033312;28;20423;-79
2023/08/04 04:03:00;;;;;;;6.70;2.10;;;16.70;89.90;;;;;;5035912;28;20437;-83
2023/08/04 04:05:28;;;;;;;3.63;2.40;;;16.70;89.80;;;;;;5050094;28;20436;-83
2023/08/04 04:07:55;;;;;;;6.40;2.57;;;16.70;89.70;;;;;;5042765;28;20507;-78
2023/08/04 04:10:21;;;;;;;3.83;2.10;;;16.70;89.90;;;;;;5039970;28;21080;-78
2023/08/04 04:12:49;;;;;;;5.00;2.10;;;16.80;89.60;;;;;;5040837;28;20567;-79
2023/08/04 04:15:17;;;;;;;3.67;2.27;;;16.80;89.60;;;;;;5039143;28;20446;-80
2023/08/04 04:17:44;;;;;;;4.23;2.10;;;16.90;89.50;;;;;;5038859;28;20510;-79
2023/08/04 04:20:13;;;;;;;4.10;1.90;;;16.80;89.40;;;;;;5043334;28;20518;-85
2023/08/04 04:22:40;;;;;;;5.00;2.53;;;16.90;88.70;;;;;;5053769;28;20464;-86
2023/08/04 04:25:08;;;;;;;2.50;1.80;;;16.90;88.70;;;;;;5056268;28;20430;-83
2023/08/04 04:27:35;;;;;;;6.70;2.30;;;17.00;88.50;;;;;;5038895;28;21085;-81
2023/08/04 04:30:03;;;;;;;5.37;2.20;;;17.00;89.50;;;;;;5038153;28;20479;-82
2023/08/04 04:32:30;;;;;;;3.73;2.30;;;17.00;89.60;;;;;;5039590;28;20442;-80
2023/08/04 04:34:57;;;;;;;3.27;2.17;;;17.00;89.10;;;;;;5045666;28;20541;-79
2023/08/04 04:37:24;;;;;;;4.60;2.53;;;17.10;87.90;;;;;;5049022;28;20816;-81
2023/08/04 04:39:52;;;;;;;1.83;1.63;;;17.20;88.60;;;;;;5030843;28;20422;-81
2023/08/04 04:42:21;;;;;;;5.27;2.43;;;17.30;89.10;;;;;;5043834;28;20451;-80
2023/08/04 04:44:48;;;;;;;3.30;2.63;;;17.40;87.00;;;;;;5033158;28;20475;-80
2023/08/04 04:47:14;;;;;;;9.13;2.73;;;17.50;86.90;;;;;;5038239;28;20547;-83
2023/08/04 04:49:41;;;;;;;2.73;2.27;;;17.60;86.80;;;;;;5019630;28;20511;-84
2023/08/04 04:52:10;;;;;;;5.93;1.93;;;17.60;86.70;;;;;;5036855;28;20533;-84
2023/08/04 04:54:38;;;;;;;2.67;2.17;;;17.60;85.60;;;;;;5037831;28;20420;-82
2023/08/04 04:57:06;;;;;;;2.40;2.20;;;17.70;85.20;;;;;;5037374;28;20551;-82
2023/08/04 04:59:33;;;;;;;3.27;2.23;;;17.80;84.00;;;;;;5014832;28;20444;-85
2023/08/04 05:02:00;;;;;;;3.73;2.07;;;17.80;84.40;;;;;;5033611;28;20746;-82
2023/08/04 05:04:27;;;;;;;3.50;1.93;;;17.80;83.80;;;;;;5032803;28;20438;-84
2023/08/04 05:06:57;;;;;;;3.80;2.10;;;17.70;84.40;;;;;;5038764;28;20731;-85
2023/08/04 05:09:24;;;;;;;2.20;2.00;;;17.90;84.40;;;;;;5038600;28;20458;-82
2023/08/04 05:11:51;;;;;;;3.57;2.17;;;18.00;83.20;;;;;;5038779;28;20482;-87
2023/08/04 05:14:17;;;;;;;2.50;2.13;;;18.10;83.90;;;;;;5029299;28;20453;-80
2023/08/04 05:16:45;;;;;;;1.67;1.57;;;18.10;83.30;;;;;;5044167;28;20444;-83
2023/08/04 05:19:14;;;;;;;3.10;2.57;;;18.20;82.70;;;;;;5039975;28;20506;-85
2023/08/04 05:21:41;;;;;;;10.50;2.33;;;18.20;82.80;;;;;;5042686;28;20528;-82
2023/08/04 05:24:09;;;;;;;2.60;2.07;;;18.20;82.60;;;;;;5030116;28;20438;-83
2023/08/04 05:26:36;;;;;;;2.83;2.10;;;18.30;82.80;;;;;;5044150;28;21002;-86
2023/08/04 05:29:03;;;;;;;3.33;2.30;;;18.40;82.40;;;;;;5012088;28;20526;-84
2023/08/04 05:31:30;;;;;;;4.13;2.30;;;18.50;82.20;;;;;;5019701;28;20498;-83
2023/08/04 05:34:01;;;;;;;2.23;2.00;;;18.50;82.50;;;;;;5020500;28;20513;-85
2023/08/04 05:36:28;;;;;;;6.23;2.03;;;18.30;82.20;;;;;;5042223;28;20753;-82
2023/08/04 05:38:55;;;;;;;4.77;2.63;;;18.50;81.80;;;;;;5047332;28;20477;-84
2023/08/04 05:41:22;;;;;;;2.27;1.80;;;18.60;81.80;;;;;;5049059;28;20653;-86
2023/08/04 05:43:49;;;;;;;2.20;2.00;;;18.70;80.80;;;;;;5021473;28;20435;-85
2023/08/04 05:46:16;;;;;;;3.67;2.17;;;18.90;80.10;;;;;;5038587;28;20522;-83
2023/08/04 05:48:43;;;;;;;1.90;1.80;;;18.90;79.40;;;;;;5046400;28;20490;-83
2023/08/04 05:51:10;;;;;;;6.37;2.30;;;19.10;77.80;;;;;;5042033;28;20444;-85
2023/08/04 05:53:41;;;;;;;2.80;1.80;;;19.10;78.30;;;;;;5030888;28;20432;-82
2023/08/04 05:56:09;;;;;;;4.83;2.10;;;19.20;76.50;;;;;;5034368;28;20564;-83
2023/08/04 05:58:35;;;;;;;4.10;1.80;;;19.20;77.00;;;;;;5030746;28;20749;-83
2023/08/04 06:01:03;;;;;;;3.30;2.00;;;19.30;77.80;;;;;;5036446;28;20595;-83
2023/08/04 06:03:31;;;;;;;2.63;1.70;;;19.60;77.20;;;;;;5040435;28;20755;-83
2023/08/04 06:05:59;;;;;;;3.43;2.10;;;19.60;77.30;;;;;;5041915;28;20416;-83
2023/08/04 06:08:28;;;;;;;3.50;2.50;;;19.70;77.30;;;;;;5039574;28;20455;-83
2023/08/04 06:10:55;;;;;;;6.33;2.37;;;19.70;77.20;;;;;;5045164;28;20416;-83
2023/08/04 06:13:22;;;;;;;3.63;2.30;;;19.80;77.00;;;;;;5054589;28;20431;-83
2023/08/04 06:15:49;;;;;;;3.83;2.20;;;19.80;77.00;;;;;;5047161;28;20444;-84
2023/08/04 06:18:17;;;;;;;2.83;2.37;;;19.90;76.20;;;;;;5021945;28;20424;-81
2023/08/04 06:20:47;;;;;;;4.10;2.83;;;20.00;76.40;;;;;;5044163;28;20827;-83
2023/08/04 06:23:14;;;;;;;4.90;3.40;;;20.20;76.20;;;;;;5024639;28;20416;-81
2023/08/04 06:25:41;;;;;;;4.23;2.70;;;20.50;75.90;;;;;;5042164;28;20447;-83
2023/08/04 06:28:08;;;;;;;2.67;2.10;;;20.70;75.20;;;;;;5041293;28;20468;-85
2023/08/04 06:30:36;;;;;;;8.70;2.77;;;20.70;74.60;;;;;;5041275;28;20424;-81
2023/08/04 06:33:03;;;;;;;6.57;2.10;;;20.70;74.80;;;;;;5041083;28;21061;-82
2023/08/04 06:35:32;;;;;;;6.53;2.53;;;20.50;75.20;;;;;;5040099;28;20441;-83
2023/08/04 06:37:59;;;;;;;6.50;3.23;;;20.60;75.30;;;;;;5021910;28;20710;-83
2023/08/04 06:40:27;;;;;;;7.13;2.27;;;20.50;75.50;;;;;;5034333;28;20417;-83
2023/08/04 06:42:54;;;;;;;4.30;2.40;;;20.50;75.00;;;;;;5039463;28;20453;-83
2023/08/04 06:45:21;;;;;;;3.20;2.57;;;20.50;74.80;;;;;;5039362;28;20451;-83
2023/08/04 06:47:48;;;;;;;5.20;2.70;;;20.60;73.80;;;;;;5039364;28;20452;-81
2023/08/04 06:50:15;;;;;;;6.20;3.50;;;20.60;73.70;;;;;;5029784;28;20549;-82
2023/08/04 06:52:42;;;;;;;3.67;1.60;;;20.70;74.60;;;;;;5039791;28;20420;-79
2023/08/04 06:55:09;;;;;;;5.17;2.10;;;20.60;73.20;;;;;;5039475;28;20476;-81
2023/08/04 06:57:36;;;;;;;3.80;2.10;;;20.60;73.40;;;;;;5038888;28;20628;-79
2023/08/04 07:00:04;;;;;;;4.13;2.30;;;20.60;73.30;;;;;;5035263;28;20487;-81
2023/08/04 07:02:31;;;;;;;3.67;1.80;;;20.60;73.90;;;;;;5036665;28;20461;-78
2023/08/04 07:04:58;;;;;;;2.40;1.93;;;20.60;73.00;;;;;;5036340;28;20413;-81
2023/08/04 07:07:26;;;;;;;2.87;1.57;;;20.60;72.10;;;;;;5032796;28;20501;-80
2023/08/04 07:09:53;;;;;;;2.40;1.57;;;20.80;72.90;;;;;;5039539;28;20528;-81
2023/08/04 07:12:19;;;;;;;4.77;1.83;;;21.50;68.10;;;;;;5043629;28;20470;-79
2023/08/04 07:14:47;;;;;;;1.93;1.63;;;22.90;64.10;;;;;;5032852;28;20438;-78
2023/08/04 07:17:13;;;;;;;3.20;2.40;;;24.10;59.50;;;;;;5017523;28;20525;-78
2023/08/04 07:19:41;;;;;;;2.33;2.00;;;24.90;57.80;;;;;;5043807;28;20497;-81
2023/08/04 07:22:07;;;;;;;2.57;2.00;;;25.70;53.70;;;;;;5055320;28;20428;-78
2023/08/04 07:24:34;;;;;;;1.77;1.60;;;26.40;53.10;;;;;;5047440;28;20441;-79
2023/08/04 07:27:01;;;;;;;3.57;3.20;;;26.80;51.50;;;;;;5040774;28;20461;-81
2023/08/04 07:29:33;;;;;;;2.47;2.30;;;27.00;50.10;;;;;;5049216;28;20549;-83
2023/08/04 07:32:00;;;;;;;3.53;1.87;;;27.40;49.20;;;;;;5037269;28;20448;-78
2023/08/04 07:34:27;;;;;;;4.60;1.83;;;28.30;48.40;;;;;;5039687;28;20453;-80
2023/08/04 07:36:54;;;;;;;5.40;2.33;;;28.50;47.60;;;;;;5039695;28;20626;-78
2023/08/04 07:39:22;;;;;;;4.03;1.97;;;29.00;45.50;;;;;;5039256;28;20829;-78
2023/08/04 07:41:49;;;;;;;2.20;2.00;;;29.50;44.90;;;;;;5028890;28;20462;-79
2023/08/04 07:44:15;;;;;;;4.00;1.97;;;29.80;44.40;;;;;;5036754;28;21098;-79
2023/08/04 07:46:42;;;;;;;4.10;2.00;;;30.00;43.10;;;;;;5037642;28;20463;-83
2023/08/04 07:49:09;;;;;;;2.03;1.50;;;30.80;42.20;;;;;;5026124;28;20488;-78
2023/08/04 07:51:36;;;;;;;3.30;2.03;;;30.80;41.40;;;;;;5035510;28;20445;-78
2023/08/04 07:54:03;;;;;;;2.60;2.07;;;31.00;40.90;;;;;;5035002;28;20814;-84
2023/08/04 07:56:34;;;;;;;3.33;2.10;;;32.00;39.90;;;;;;5019449;28;20509;-80
2023/08/04 07:59:02;;;;;;;2.40;1.77;;;32.30;38.70;;;;;;5036876;28;20552;-85
2023/08/04 08:01:29;;;;;;;3.73;2.13;;;32.30;38.40;;;;;;5036140;28;20510;-82
2023/08/04 08:03:56;;;;;;;2.43;2.23;;;32.00;39.00;;;;;;5035745;28;20445;-80
2023/08/04 08:06:23;;;;;;;4.30;2.00;;;31.00;40.70;;;;;;5037282;28;21036;-80
2023/08/04 08:08:50;;;;;;;2.80;1.87;;;29.60;43.30;;;;;;5035877;28;20488;-82
2023/08/04 08:11:17;;;;;;;1.93;1.73;;;28.50;45.90;;;;;;5036763;28;20456;-80
2023/08/04 08:13:44;;;;;;;2.40;1.97;;;28.20;47.40;;;;;;5032207;28;20533;-86
2023/08/04 08:16:14;;;;;;;2.07;1.90;;;29.30;44.10;;;;;;5037045;28;20466;-79
2023/08/04 08:18:45;;;;;;;3.00;1.97;;;29.40;44.00;;;;;;5000649;28;20718;-81
2023/08/04 08:21:13;;;;;;;2.33;2.13;;;29.50;44.50;;;;;;5032214;28;20505;-83
2023/08/04 08:23:40;;;;;;;1.63;1.53;;;30.70;42.90;;;;;;5021266;28;20973;-82
2023/08/04 08:26:07;;;;;;;2.00;1.80;;;30.20;42.40;;;;;;5037473;28;20438;-80
2023/08/04 08:28:34;;;;;;;4.07;1.50;;;28.80;45.00;;;;;;5037371;28;20470;-82
2023/08/04 08:31:01;;;;;;;2.10;1.73;;;27.30;48.40;;;;;;5036811;28;20517;-82
2023/08/04 08:33:28;;;;;;;1.87;1.77;;;26.70;50.20;;;;;;5030841;28;20441;-79
2023/08/04 08:35:56;;;;;;;3.10;1.80;;;27.00;49.50;;;;;;5035539;28;20536;-81
2023/08/04 08:38:23;;;;;;;4.50;2.40;;;27.40;49.70;;;;;;5031487;28;20829;-80
2023/08/04 08:40:50;;;;;;;1.73;1.63;;;28.90;47.10;;;;;;5031101;28;20476;-80
2023/08/04 08:43:18;;;;;;;1.73;1.57;;;29.70;44.70;;;;;;5032243;28;20620;-85
2023/08/04 08:45:46;;;;;;;2.30;1.80;;;30.60;42.10;;;;;;5037233;28;20517;-81
2023/08/04 08:48:14;;;;;;;1.70;1.60;;;30.40;41.90;;;;;;5038121;28;20514;-81
2023/08/04 08:50:47;;;;;;;2.23;2.03;;;29.30;43.20;;;;;;5035005;28;20549;-83
2023/08/04 08:53:19;;;;;;;2.90;1.80;;;28.30;46.00;;;;;;5014159;28;20431;-81
2023/08/04 08:55:47;;;;;;;4.27;1.93;;;28.40;46.30;;;;;;5036822;28;20521;-79
2023/08/04 08:58:15;;;;;;;1.50;1.40;;;29.20;45.00;;;;;;5033410;28;20496;-80
2023/08/04 09:00:42;;;;;;;1.90;1.77;;;30.00;43.50;;;;;;5036672;28;20516;-79
2023/08/04 09:03:10;;;;;;;1.80;1.70;;;30.40;41.90;;;;;;5019367;28;20473;-81
2023/08/04 09:05:37;;;;;;;2.40;2.10;;;30.80;41.10;;;;;;5036562;28;20445;-79
2023/08/04 09:08:06;;;;;;;2.17;1.67;;;31.50;41.20;;;;;;5031498;28;20797;-83
2023/08/04 09:10:37;;;;;;;2.17;1.83;;;32.00;39.50;;;;;;5026405;28;20481;-81
2023/08/04 09:13:08;;;;;;;2.27;2.07;;;31.90;39.80;;;;;;5034584;28;20446;-81
2023/08/04 09:15:46;;;;;;;6.83;6.30;;;32.40;38.80;;;;;;5036566;28;20449;-82
2023/08/04 09:18:33;;;;;;;2.13;1.80;;;33.00;38.10;;;;;;5035351;28;20449;-81
2023/08/04 09:21:09;;;;;;;2.17;1.97;;;33.00;36.90;;;;;;5007527;28;20501;-80
2023/08/04 09:23:37;;;;;;;2.40;2.20;;;33.20;37.10;;;;;;5017556;28;20526;-80
2023/08/04 09:26:04;;;;;;;2.93;1.87;;;32.90;36.90;;;;;;5034451;28;20441;-80
2023/08/04 09:28:31;;;;;;;5.47;2.00;;;32.70;36.20;;;;;;5034173;28;20541;-80
2023/08/04 09:31:08;;;;;;;2.83;2.60;;;33.00;36.20;;;;;;5033272;28;20888;-79
2023/08/04 09:33:43;;;;;;;2.33;1.90;;;33.00;36.60;;;;;;5036275;28;20442;-79
2023/08/04 09:36:13;;;;;;;1.83;1.73;;;32.60;36.40;;;;;;5042761;28;20448;-78
2023/08/04 09:38:40;;;;;;;2.03;1.93;;;32.70;36.30;;;;;;5038724;28;20433;-80
2023/08/04 09:41:09;;;;;;;2.37;2.00;;;32.90;37.10;;;;;;5033539;28;20465;-80
2023/08/04 09:43:49;;;;;;;1.80;1.70;;;31.90;39.10;;;;;;5039476;28;20517;-82
2023/08/04 09:46:16;;;;;;;4.73;1.87;;;31.50;39.00;;;;;;5038495;28;20773;-79
2023/08/04 09:48:45;;;;;;;5.13;2.00;;;31.00;40.90;;;;;;5021702;28;20524;-80
2023/08/04 09:51:14;;;;;;;2.37;1.70;;;29.90;42.50;;;;;;5035338;28;20481;-80
2023/08/04 09:53:49;;;;;;;2.90;1.80;;;28.90;44.00;;;;;;5034161;28;20496;-78
2023/08/04 09:56:18;;;;;;;2.60;1.97;;;28.60;44.60;;;;;;5038388;28;20455;-87
2023/08/04 09:58:46;;;;;;;4.10;1.90;;;28.30;44.70;;;;;;5020942;28;20445;-79
2023/08/04 10:01:14;;;;;;;1.40;1.30;;;28.40;45.70;;;;;;5038274;28;20649;-79
2023/08/04 10:03:43;;;;;;;4.57;1.90;;;28.50;42.90;;;;;;5031839;28;20451;-79
2023/08/04 10:06:10;;;;;;;2.20;1.87;;;28.60;44.20;;;;;;5038776;28;20762;-82
2023/08/04 10:08:40;;;;;;;5.53;2.10;;;28.50;44.40;;;;;;5036919;28;20549;-84
2023/08/04 10:11:09;;;;;;;2.80;1.70;;;28.60;44.20;;;;;;5019893;28;20503;-78
2023/08/04 10:13:42;;;;;;;2.23;1.60;;;28.50;43.90;;;;;;5037531;28;20480;-78
2023/08/04 10:16:12;;;;;;;2.30;1.60;;;28.70;43.80;;;;;;5036679;28;20461;-78
2023/08/04 10:19:00;;;;;;;3.90;2.13;;;29.00;43.10;;;;;;5033101;28;20436;-78
2023/08/04 10:21:35;;;;;;;4.10;2.00;;;29.10;42.20;;;;;;5020064;28;20638;-78
2023/08/04 10:24:11;;;;;;;1.80;1.60;;;29.30;41.90;;;;;;5027190;28;20510;-79
2023/08/04 10:26:52;;;;;;;2.30;1.27;;;29.50;42.00;;;;;;5036548;28;20626;-77
2023/08/04 10:29:27;;;;;;;2.37;1.40;;;29.50;42.10;;;;;;5024105;28;20480;-80
2023/08/04 10:31:56;;;;;;;4.07;1.63;;;29.20;42.40;;;;;;5028026;28;20441;-81
2023/08/04 10:34:41;;;;;;;2.00;1.83;;;29.10;43.40;;;;;;5040669;28;20506;-80
2023/08/04 10:37:11;;;;;;;2.77;1.77;;;29.00;41.90;;;;;;5037801;28;20505;-78
2023/08/04 10:39:43;;;;;;;1.67;1.57;;;28.80;42.20;;;;;;5031376;28;20773;-79
2023/08/04 10:42:26;;;;;;;1.50;1.40;;;28.50;42.70;;;;;;5018332;28;20476;-83
2023/08/04 10:45:07;;;;;;;6.53;2.50;;;27.90;43.60;;;;;;5033670;28;20774;-77
2023/08/04 10:47:42;;;;;;;1.83;1.57;;;27.80;44.60;;;;;;5048915;28;20441;-80
2023/08/04 10:50:29;;;;;;;1.63;1.53;;;27.80;44.50;;;;;;5035721;28;20477;-78
2023/08/04 10:52:56;;;;;;;1.97;1.53;;;28.20;44.00;;;;;;5039469;28;20512;-79
2023/08/04 10:55:26;;;;;;;2.20;1.63;;;28.20;43.30;;;;;;5030752;28;20464;-78
2023/08/04 10:58:00;;;;;;;1.80;1.70;;;28.30;44.00;;;;;;5019396;28;20723;-78
2023/08/04 11:00:27;;;;;;;2.00;1.90;;;28.40;44.40;;;;;;5035832;28;20482;-78
2023/08/04 11:02:54;;;;;;;1.53;1.43;;;28.60;43.60;;;;;;5033964;28;20449;-78
2023/08/04 11:05:23;;;;;;;2.23;1.97;;;28.90;43.80;;;;;;5036963;28;20508;-78
2023/08/04 11:07:51;;;;;;;3.20;1.93;;;29.30;43.90;;;;;;5032064;28;20453;-79
2023/08/04 11:10:18;;;;;;;1.90;1.80;;;29.30;41.70;;;;;;5035803;28;20478;-78
2023/08/04 11:12:45;;;;;;;1.73;1.63;;;29.40;41.80;;;;;;5036191;28;20445;-78
2023/08/04 11:15:12;;;;;;;1.80;1.70;;;29.20;42.30;;;;;;5035216;28;20501;-79
2023/08/04 11:17:40;;;;;;;1.90;1.80;;;29.20;42.60;;;;;;5029886;28;20465;-79
2023/08/04 11:20:12;;;;;;;1.70;1.60;;;29.20;42.90;;;;;;5035431;28;20450;-83
2023/08/04 11:22:48;;;;;;;2.07;1.57;;;29.20;42.70;;;;;;5020843;28;20438;-79
2023/08/04 11:25:16;;;;;;;1.70;1.60;;;29.20;42.10;;;;;;5038386;28;20516;-78
2023/08/04 11:27:45;;;;;;;2.17;1.67;;;28.50;43.00;;;;;;5036520;28;20469;-79
2023/08/04 11:30:12;;;;;;;4.03;1.57;;;28.00;43.80;;;;;;5029471;28;20853;-84
2023/08/04 11:32:39;;;;;;;1.50;1.40;;;28.00;44.40;;;;;;5036012;28;20497;-78
2023/08/04 11:35:07;;;;;;;3.47;2.80;;;28.20;43.70;;;;;;5017545;28;20985;-78
2023/08/04 11:37:34;;;;;;;4.40;2.00;;;28.60;44.70;;;;;;5032000;28;20470;-79
2023/08/04 11:40:02;;;;;;;2.23;1.60;;;28.60;42.60;;;;;;5037689;28;20467;-81
2023/08/04 11:42:29;;;;;;;2.50;1.70;;;28.50;43.10;;;;;;5020930;28;20509;-82
2023/08/04 11:44:57;;;;;;;1.90;1.33;;;28.40;44.00;;;;;;5015737;28;20447;-80
2023/08/04 11:47:25;;;;;;;2.00;1.80;;;28.20;43.90;;;;;;5031852;28;20480;-79
2023/08/04 11:49:53;;;;;;;1.90;1.80;;;28.30;43.60;;;;;;5037515;28;20519;-82
2023/08/04 11:52:21;;;;;;;1.83;1.70;;;28.00;44.00;;;;;;5036461;28;20464;-80
2023/08/04 11:54:54;;;;;;;2.57;2.37;;;27.50;43.90;;;;;;5013966;28;20457;-80
2023/08/04 11:57:22;;;;;;;1.80;1.70;;;27.60;44.80;;;;;;5036601;28;20443;-80
2023/08/04 11:59:51;;;;;;;3.13;1.77;;;27.80;44.20;;;;;;5015510;28;20441;-83
2023/08/04 12:02:19;;;;;;;6.57;2.10;;;28.00;43.00;;;;;;5017972;28;20501;-79
2023/08/04 12:05:03;;;;;;;1.70;1.50;;;27.90;43.90;;;;;;5035271;28;20608;-77
2023/08/04 12:07:30;;;;;;;1.63;1.53;;;27.90;45.00;;;;;;5033814;28;20458;-79
2023/08/04 12:09:57;;;;;;;2.20;1.90;;;28.30;43.60;;;;;;5014128;28;20540;-80
2023/08/04 12:12:35;;;;;;;3.57;2.10;;;28.30;43.50;;;;;;5032006;28;20476;-78
2023/08/04 12:15:03;;;;;;;3.10;2.00;;;28.00;45.00;;;;;;5035021;28;20452;-81
2023/08/04 12:17:36;;;;;;;1.70;1.60;;;27.40;45.10;;;;;;5018474;28;20443;-80
2023/08/04 12:20:04;;;;;;;1.67;1.57;;;27.10;47.00;;;;;;5036246;28;20442;-78
2023/08/04 12:22:38;;;;;;;1.70;1.47;;;27.00;46.00;;;;;;5036544;28;20453;-78
2023/08/04 12:25:07;;;;;;;2.83;1.77;;;27.10;46.00;;;;;;5041741;28;20442;-80
2023/08/04 12:27:34;;;;;;;2.63;1.80;;;27.10;46.20;;;;;;5029624;28;20897;-79
2023/08/04 12:30:02;;;;;;;2.67;2.00;;;27.10;46.40;;;;;;5036527;28;20481;-79
2023/08/04 12:32:29;;;;;;;2.03;1.83;;;27.10;45.80;;;;;;5034889;28;20479;-79
2023/08/04 12:34:57;;;;;;;2.17;2.07;;;27.30;45.50;;;;;;5017095;28;20509;-78
2023/08/04 12:37:27;;;;;;;3.07;1.40;;;27.30;45.00;;;;;;5032605;28;20465;-78
2023/08/04 12:39:54;;;;;;;2.70;2.50;;;27.30;45.80;;;;;;5029073;28;21014;-79
2023/08/04 12:42:23;;;;;;;2.10;1.90;;;27.30;45.00;;;;;;5015953;28;20488;-80
2023/08/04 12:44:50;;;;;;;4.80;1.93;;;27.50;45.50;;;;;;5036000;28;20445;-79
2023/08/04 12:47:17;;;;;;;2.80;1.93;;;27.80;45.60;;;;;;5034753;28;20481;-78
2023/08/04 12:49:44;;;;;;;1.83;1.73;;;28.40;45.40;;;;;;5034202;28;20449;-80
2023/08/04 12:52:14;;;;;;;1.80;1.70;;;28.40;44.20;;;;;;5037465;28;20473;-79